createdAt,value
2019-04-21T04:02:35.146Z,9.74
2019-04-21T04:05:29.832Z,9.67
2019-04-21T04:07:22.921Z,9.45
2019-04-21T04:08:23.091Z,9.48
2019-04-21T04:10:08.369Z,9.37
2019-04-21T04:11:12.060Z,9.34
2019-04-21T04:12:57.680Z,9.34
2019-04-21T04:15:56.583Z,9.32
2019-04-21T04:18:53.249Z,9.42
2019-04-21T04:21:41.500Z,9.47
2019-04-21T04:22:45.513Z,9.42
2019-04-21T04:25:27.861Z,9.55
2019-04-21T04:28:33.115Z,9.62
2019-04-21T04:30:25.344Z,9.63
2019-04-21T04:31:25.442Z,9.60
2019-04-21T04:33:08.029Z,9.57
2019-04-21T04:37:05.423Z,9.56
2019-04-21T04:39:02.729Z,9.50
2019-04-21T04:40:00.582Z,9.60
2019-04-21T04:41:53.314Z,9.59
2019-04-21T04:45:41.719Z,9.53
2019-04-21T04:48:28.038Z,9.56
2019-04-21T04:50:29.966Z,9.56
2019-04-21T04:51:36.485Z,9.55
2019-04-21T04:53:20.332Z,9.67
2019-04-21T04:54:21.745Z,9.71
2019-04-21T04:56:12.485Z,9.74
2019-04-21T04:57:21.780Z,9.75
2019-04-21T05:00:15.467Z,9.77
2019-04-21T05:02:02.368Z,9.71
2019-04-21T05:04:59.002Z,9.81
2019-04-21T05:05:49.671Z,9.88
2019-04-21T05:07:55.417Z,9.84
2019-04-21T05:08:56.021Z,9.80
2019-04-21T05:10:57.388Z,9.82
2019-04-21T05:13:21.885Z,9.81
2019-04-21T05:14:21.277Z,9.82
2019-04-21T05:16:32.019Z,9.84
2019-04-21T05:17:30.930Z,9.88
2019-04-21T05:19:22.889Z,9.92
2019-04-21T05:22:03.504Z,9.95
2019-04-21T05:22:59.755Z,10.03
2019-04-21T05:24:44.011Z,10.03
2019-04-21T05:25:41.549Z,10.03
2019-04-21T05:27:34.678Z,10.07
2019-04-21T05:28:32.691Z,10.00
2019-04-21T05:30:47.648Z,10.17
2019-04-21T05:31:38.813Z,10.25
2019-04-21T05:33:26.973Z,10.31
2019-04-21T05:34:27.610Z,10.21
2019-04-21T05:36:20.527Z,10.39
2019-04-21T05:37:23.263Z,10.42
2019-04-21T05:39:10.653Z,10.51
2019-04-21T05:40:07.536Z,10.49
2019-04-21T05:41:53.753Z,10.63
2019-04-21T05:43:03.388Z,10.57
2019-04-21T05:45:01.615Z,10.63
2019-04-21T05:46:02.621Z,10.65
2019-04-21T05:47:57.584Z,10.69
2019-04-21T05:48:48.374Z,10.63
2019-04-21T05:50:38.122Z,10.66
2019-04-21T05:51:41.103Z,10.73
2019-04-21T05:53:40.521Z,10.75
2019-04-21T05:56:31.847Z,10.75
2019-04-21T05:57:32.242Z,10.77
2019-04-21T05:59:22.042Z,10.77
2019-04-21T06:00:35.225Z,10.76
2019-04-21T06:03:15.124Z,10.90
2019-04-21T06:06:14.106Z,10.92
2019-04-21T06:08:02.360Z,10.97
2019-04-21T06:09:04.961Z,11.09
2019-04-21T06:10:52.393Z,11.09
2019-04-21T06:11:51.251Z,11.08
2019-04-21T06:13:48.805Z,11.18
2019-04-21T06:14:48.428Z,11.15
2019-04-21T06:16:43.005Z,11.38
2019-04-21T06:19:36.579Z,11.42
2019-04-21T06:20:30.693Z,11.53
2019-04-21T06:22:22.423Z,11.66
2019-04-21T06:23:28.697Z,11.70
2019-04-21T06:26:44.936Z,11.88
2019-04-21T06:28:14.424Z,11.97
2019-04-21T06:29:04.253Z,12.08
2019-04-21T06:33:53.748Z,12.33
2019-04-21T06:36:49.590Z,12.34
2019-04-21T06:39:54.122Z,12.58
2019-04-21T06:40:42.496Z,12.63
2019-04-21T06:42:27.033Z,12.81
2019-04-21T06:43:37.743Z,12.80
2019-04-21T06:45:27.581Z,12.96
2019-04-21T06:46:30.196Z,13.06
2019-04-21T06:48:21.013Z,13.44
2019-04-21T06:49:31.359Z,13.65
2019-04-21T06:51:10.718Z,15.88
2019-04-21T06:52:18.017Z,17.62
2019-04-21T06:55:12.558Z,21.12
2019-04-21T06:56:51.282Z,22.18
2019-04-21T06:57:55.891Z,22.85
2019-04-21T06:59:43.387Z,23.81
2019-04-21T07:00:43.223Z,24.17
2019-04-21T07:03:45.901Z,24.97
2019-04-21T07:05:34.638Z,25.30
2019-04-21T07:06:36.287Z,25.42
2019-04-21T07:09:25.412Z,26.00
2019-04-21T07:11:15.312Z,26.15
2019-04-21T07:12:12.578Z,26.20
2019-04-21T07:15:03.311Z,26.38
2019-04-21T07:17:06.792Z,26.45
2019-04-21T07:17:59.444Z,26.67
2019-04-21T07:19:55.959Z,27.04
2019-04-21T07:20:54.929Z,27.00
2019-04-21T07:22:50.563Z,26.86
2019-04-21T07:23:47.295Z,27.12
2019-04-21T07:25:38.802Z,27.31
2019-04-21T07:26:36.872Z,27.16
2019-04-21T07:28:36.257Z,27.52
2019-04-21T07:29:34.768Z,27.76
2019-04-21T07:31:25.422Z,27.94
2019-04-21T07:32:22.311Z,28.01
2019-04-21T07:34:21.466Z,28.11
2019-04-21T07:35:17.469Z,28.06
2019-04-21T07:37:06.172Z,27.93
2019-04-21T07:38:05.616Z,28.08
2019-04-21T07:40:03.717Z,28.16
2019-04-21T07:40:53.411Z,28.20
2019-04-21T07:42:49.818Z,28.28
2019-04-21T07:43:49.036Z,28.14
2019-04-21T07:45:40.121Z,28.24
2019-04-21T07:46:38.499Z,28.38
2019-04-21T07:48:37.594Z,28.28
2019-04-21T07:49:41.573Z,28.33
2019-04-21T07:51:33.995Z,28.31
2019-04-21T07:52:35.045Z,28.24
2019-04-21T07:54:33.718Z,28.67
2019-04-21T07:57:11.585Z,28.90
2019-04-21T07:58:14.918Z,29.03
2019-04-21T08:01:12.457Z,28.78
2019-04-21T08:03:00.527Z,28.78
2019-04-21T08:03:59.433Z,28.83
2019-04-21T08:05:58.861Z,28.60
2019-04-21T08:06:53.654Z,28.63
2019-04-21T08:08:49.096Z,27.87
2019-04-21T08:09:47.170Z,27.66
2019-04-21T08:11:36.776Z,27.61
2019-04-21T08:12:37.943Z,27.41
2019-04-21T08:14:36.915Z,26.94
2019-04-21T08:15:44.637Z,26.97
2019-04-21T08:17:24.138Z,26.44
2019-04-21T08:18:26.995Z,26.53
2019-04-21T08:20:15.686Z,25.84
2019-04-21T08:21:15.282Z,25.24
2019-04-21T08:23:13.450Z,24.97
2019-04-21T08:24:10.512Z,24.64
2019-04-21T08:27:05.043Z,23.78
2019-04-21T08:29:06.499Z,23.21
2019-04-21T08:29:51.591Z,22.88
2019-04-21T08:34:48.532Z,21.93
2019-04-21T08:37:31.414Z,21.58
2019-04-21T08:38:38.850Z,21.58
2019-04-21T08:40:31.553Z,21.52
2019-04-21T08:41:27.759Z,21.51
2019-04-21T08:43:21.801Z,21.48
2019-04-21T08:44:20.942Z,21.37
2019-04-21T08:46:16.942Z,21.41
2019-04-21T08:47:12.904Z,21.49
2019-04-21T08:49:02.590Z,21.62
2019-04-21T08:50:02.151Z,21.49
2019-04-21T08:52:05.171Z,21.28
2019-04-21T08:52:56.628Z,21.28
2019-04-21T08:54:52.131Z,21.36
2019-04-21T08:55:49.526Z,21.25
2019-04-21T08:57:50.841Z,21.36
2019-04-21T08:58:47.811Z,21.49
2019-04-21T09:00:36.874Z,21.53
2019-04-21T09:01:36.846Z,21.51
2019-04-21T09:03:32.969Z,21.46
2019-04-21T09:04:24.461Z,21.33
2019-04-21T09:06:29.097Z,21.36
2019-04-21T09:07:21.329Z,21.21
2019-04-21T09:09:10.970Z,21.48
2019-04-21T09:10:09.695Z,21.64
2019-04-21T09:12:08.686Z,21.68
2019-04-21T09:13:01.395Z,21.76
2019-04-21T09:14:58.062Z,21.76
2019-04-21T09:15:56.849Z,21.68
2019-04-21T09:17:41.015Z,21.55
2019-04-21T09:18:43.344Z,21.61
2019-04-21T09:20:47.428Z,21.68
2019-04-21T09:21:46.947Z,21.83
2019-04-21T09:23:36.391Z,21.93
2019-04-21T09:24:33.071Z,21.97
2019-04-21T09:26:28.348Z,21.97
2019-04-21T09:27:20.752Z,21.96
2019-04-21T09:29:13.637Z,22.20
2019-04-21T09:30:03.508Z,22.09
2019-04-21T09:31:55.847Z,22.16
2019-04-21T09:32:54.846Z,22.27
2019-04-21T09:34:47.299Z,21.96
2019-04-21T09:35:50.117Z,21.97
2019-04-21T09:37:44.398Z,21.64
2019-04-21T09:38:41.885Z,21.66
2019-04-21T09:40:36.244Z,21.64
2019-04-21T09:41:34.258Z,21.83
2019-04-21T09:43:30.777Z,21.99
2019-04-21T09:44:30.204Z,22.23
2019-04-21T09:46:16.161Z,22.33
2019-04-21T09:47:19.020Z,22.52
2019-04-21T09:49:12.514Z,22.51
2019-04-21T09:50:08.515Z,22.51
2019-04-21T09:52:02.081Z,22.64
2019-04-21T09:53:12.916Z,22.69
2019-04-21T09:55:03.995Z,22.73
2019-04-21T09:55:58.117Z,22.79
2019-04-21T09:57:52.142Z,22.82
2019-04-21T09:58:49.741Z,22.69
2019-04-21T10:00:47.628Z,22.69
2019-04-21T10:01:52.658Z,22.69
2019-04-21T10:03:39.659Z,22.76
2019-04-21T10:04:31.136Z,22.84
2019-04-21T10:06:23.760Z,22.84
2019-04-21T10:07:28.194Z,22.79
2019-04-21T10:09:19.441Z,22.89
2019-04-21T10:10:17.142Z,22.91
2019-04-21T10:12:09.721Z,23.06
2019-04-21T10:13:08.555Z,22.92
2019-04-21T10:15:01.889Z,22.85
2019-04-21T10:16:01.138Z,22.86
2019-04-21T10:17:54.082Z,22.82
2019-04-21T10:18:54.711Z,22.84
2019-04-21T10:20:46.984Z,23.04
2019-04-21T10:21:47.846Z,23.01
2019-04-21T10:23:39.607Z,22.92
2019-04-21T10:24:40.495Z,22.92
2019-04-21T10:26:33.305Z,23.00
2019-04-21T10:27:32.056Z,23.04
2019-04-21T10:29:27.881Z,23.04
2019-04-21T10:30:24.784Z,23.00
2019-04-21T10:32:21.351Z,23.04
2019-04-21T10:33:18.479Z,23.04
2019-04-21T10:35:10.911Z,23.01
2019-04-21T10:36:10.958Z,23.04
2019-04-21T10:38:14.885Z,22.76
2019-04-21T10:39:02.473Z,22.67
2019-04-21T10:40:55.099Z,22.70
2019-04-21T10:41:55.268Z,22.61
2019-04-21T10:43:49.240Z,22.61
2019-04-21T10:44:47.563Z,22.71
2019-04-21T10:46:40.604Z,22.71
2019-04-21T10:47:41.052Z,22.86
2019-04-21T10:49:32.831Z,22.99
2019-04-21T10:50:32.736Z,22.94
2019-04-21T10:52:27.904Z,23.01
2019-04-21T10:53:25.347Z,23.07
2019-04-21T10:55:36.748Z,23.15
2019-04-21T10:56:26.961Z,23.15
2019-04-21T10:58:11.029Z,23.34
2019-04-21T10:59:12.015Z,23.21
2019-04-21T11:01:04.185Z,23.21
2019-04-21T11:02:03.298Z,23.24
2019-04-21T11:03:55.915Z,23.12
2019-04-21T11:04:56.667Z,23.03
2019-04-21T11:06:48.646Z,22.86
2019-04-21T11:08:00.894Z,22.85
2019-04-21T11:09:42.309Z,22.89
2019-04-21T11:10:41.259Z,22.99
2019-04-21T11:12:36.488Z,23.01
2019-04-21T11:13:34.729Z,23.06
2019-04-21T11:15:27.438Z,23.21
2019-04-21T11:16:26.949Z,23.24
2019-04-21T11:18:19.829Z,23.26
2019-04-21T11:19:19.931Z,23.25
2019-04-21T11:21:13.100Z,23.25
2019-04-21T11:22:12.648Z,23.38
2019-04-21T11:24:04.337Z,23.35
2019-04-21T11:25:04.920Z,23.40
2019-04-21T11:26:58.151Z,23.38
2019-04-21T11:27:56.882Z,23.41
2019-04-21T11:29:49.618Z,23.41
2019-04-21T11:30:50.879Z,23.34
2019-04-21T11:32:44.954Z,23.26
2019-04-21T11:33:43.047Z,23.28
2019-04-21T11:35:35.272Z,23.34
2019-04-21T11:36:35.291Z,23.28
2019-04-21T11:38:30.493Z,23.22
2019-04-21T11:39:37.595Z,23.21
2019-04-21T11:41:21.528Z,23.41
2019-04-21T11:42:20.021Z,23.40
2019-04-21T11:44:14.015Z,23.25
2019-04-21T11:45:12.647Z,23.32
2019-04-21T11:47:06.588Z,23.28
2019-04-21T11:48:06.132Z,23.37
2019-04-21T11:49:59.036Z,23.24
2019-04-21T11:50:59.150Z,23.32
2019-04-21T11:52:50.534Z,23.22
2019-04-21T11:53:50.768Z,23.19
2019-04-21T11:55:46.684Z,23.25
2019-04-21T11:56:43.320Z,23.32
2019-04-21T11:58:36.091Z,23.38
2019-04-21T11:59:35.779Z,23.53
2019-04-21T12:01:29.625Z,23.71
2019-04-21T12:02:28.276Z,23.70
2019-04-21T12:04:21.336Z,23.55
2019-04-21T12:05:21.391Z,23.47
2019-04-21T12:07:13.582Z,23.37
2019-04-21T12:08:24.518Z,23.41
2019-04-21T12:10:06.196Z,23.38
2019-04-21T12:11:07.296Z,23.53
2019-04-21T12:12:59.246Z,23.60
2019-04-21T12:13:58.668Z,23.63
2019-04-21T12:15:52.713Z,23.87
2019-04-21T12:16:51.245Z,23.97
2019-04-21T12:18:45.140Z,24.15
2019-04-21T12:19:44.741Z,24.17
2019-04-21T12:21:50.498Z,24.27
2019-04-21T12:22:37.397Z,24.30
2019-04-21T12:24:31.282Z,24.12
2019-04-21T12:25:29.233Z,24.18
2019-04-21T12:27:22.269Z,24.12
2019-04-21T12:28:21.878Z,24.04
2019-04-21T12:30:15.537Z,24.14
2019-04-21T12:31:14.211Z,24.04
2019-04-21T12:33:07.731Z,24.08
2019-04-21T12:34:07.854Z,24.07
2019-04-21T12:35:59.978Z,24.02
2019-04-21T12:36:59.366Z,23.75
2019-04-21T12:38:57.726Z,23.63
2019-04-21T12:39:52.551Z,23.74
2019-04-21T12:41:44.696Z,23.78
2019-04-21T12:42:45.504Z,23.84
2019-04-21T12:44:37.297Z,23.92
2019-04-21T12:45:37.831Z,23.82
2019-04-21T12:47:30.217Z,23.92
2019-04-21T12:48:29.769Z,23.99
2019-04-21T12:50:23.608Z,23.97
2019-04-21T12:51:23.836Z,24.17
2019-04-21T12:53:15.996Z,24.30
2019-04-21T12:54:15.475Z,24.29
2019-04-21T12:56:07.600Z,24.45
2019-04-21T12:57:07.714Z,24.59
2019-04-21T12:59:01.463Z,24.61
2019-04-21T13:00:00.493Z,24.45
2019-04-21T13:01:52.862Z,24.30
2019-04-21T13:02:53.889Z,24.24
2019-04-21T13:04:46.126Z,24.32
2019-04-21T13:05:45.395Z,24.26
2019-04-21T13:07:37.920Z,24.19
2019-04-21T13:08:45.629Z,24.17
2019-04-21T13:10:30.676Z,24.03
2019-04-21T13:11:30.964Z,24.02
2019-04-21T13:13:23.930Z,23.99
2019-04-21T13:14:24.047Z,24.09
2019-04-21T13:16:15.722Z,24.11
2019-04-21T13:17:15.610Z,24.15
2019-04-21T13:19:09.366Z,24.21
2019-04-21T13:20:09.455Z,24.22
2019-04-21T13:22:01.589Z,24.12
2019-04-21T13:23:01.818Z,24.15
2019-04-21T13:24:53.893Z,24.17
2019-04-21T13:25:54.118Z,24.17
2019-04-21T13:27:47.259Z,24.08
2019-04-21T13:28:45.938Z,24.03
2019-04-21T13:30:38.636Z,24.09
2019-04-21T13:31:38.587Z,24.11
2019-04-21T13:33:31.316Z,24.17
2019-04-21T13:34:31.787Z,24.14
2019-04-21T13:36:23.804Z,24.29
2019-04-21T13:37:23.776Z,24.17
2019-04-21T13:39:44.686Z,24.26
2019-04-21T13:40:35.955Z,24.33
2019-04-21T13:42:17.467Z,24.27
2019-04-21T13:43:10.750Z,24.14
2019-04-21T13:45:03.007Z,24.39
2019-04-21T13:46:01.813Z,24.45
2019-04-21T13:47:54.731Z,24.63
2019-04-21T13:48:54.823Z,24.66
2019-04-21T13:50:49.081Z,24.80
2019-04-21T13:51:48.035Z,24.82
2019-04-21T13:53:40.161Z,24.89
2019-04-21T13:54:40.077Z,24.96
2019-04-21T13:56:34.337Z,24.66
2019-04-21T13:57:32.631Z,24.66
2019-04-21T13:59:26.437Z,24.71
2019-04-21T14:00:25.316Z,24.70
2019-04-21T14:02:18.538Z,24.85
2019-04-21T14:03:21.290Z,24.93
2019-04-21T14:05:13.405Z,24.87
2019-04-21T14:06:10.448Z,24.78
2019-04-21T14:08:03.277Z,24.64
2019-04-21T14:09:03.192Z,24.82
2019-04-21T14:10:55.776Z,25.00
2019-04-21T14:11:56.977Z,25.01
2019-04-21T14:13:48.442Z,25.04
2019-04-21T14:14:48.359Z,25.04
2019-04-21T14:16:42.206Z,25.02
2019-04-21T14:17:40.874Z,25.05
2019-04-21T14:19:33.583Z,25.12
2019-04-21T14:20:33.457Z,25.09
2019-04-21T14:22:26.425Z,25.02
2019-04-21T14:23:33.616Z,25.04
2019-04-21T14:25:19.633Z,25.01
2019-04-21T14:26:20.296Z,24.90
2019-04-21T14:28:12.282Z,25.00
2019-04-21T14:29:12.933Z,24.97
2019-04-21T14:31:04.447Z,25.08
2019-04-21T14:32:04.375Z,25.07
2019-04-21T14:33:58.295Z,25.11
2019-04-21T14:34:56.921Z,25.15
2019-04-21T14:36:50.827Z,25.17
2019-04-21T14:37:50.663Z,24.96
2019-04-21T14:39:52.817Z,24.92
2019-04-21T14:40:42.099Z,24.92
2019-04-21T14:42:36.060Z,24.80
2019-04-21T14:43:34.705Z,24.90
2019-04-21T14:45:28.233Z,24.85
2019-04-21T14:46:27.293Z,24.80
2019-04-21T14:48:21.209Z,25.00
2019-04-21T14:49:21.278Z,24.89
2019-04-21T14:51:13.194Z,24.67
2019-04-21T14:52:12.928Z,24.75
2019-04-21T14:54:05.933Z,24.75
2019-04-21T14:55:05.027Z,24.82
2019-04-21T14:56:57.747Z,24.80
2019-04-21T14:57:58.981Z,24.83
2019-04-21T14:59:51.098Z,24.92
2019-04-21T15:00:51.060Z,24.85
2019-04-21T15:02:43.567Z,24.87
2019-04-21T15:03:43.721Z,24.90
2019-04-21T15:05:35.621Z,25.02
2019-04-21T15:06:35.478Z,25.14
2019-04-21T15:08:28.971Z,25.11
2019-04-21T15:09:29.256Z,25.05
2019-04-21T15:11:21.940Z,25.04
2019-04-21T15:12:20.645Z,24.93
2019-04-21T15:14:13.817Z,24.96
2019-04-21T15:15:13.958Z,25.00
2019-04-21T15:17:07.077Z,24.85
2019-04-21T15:18:05.825Z,24.82
2019-04-21T15:20:04.443Z,24.89
2019-04-21T15:20:59.367Z,24.86
2019-04-21T15:22:52.441Z,24.87
2019-04-21T15:23:50.999Z,24.92
2019-04-21T15:25:43.985Z,24.82
2019-04-21T15:26:44.291Z,24.82
2019-04-21T15:28:37.877Z,24.80
2019-04-21T15:29:36.170Z,24.83
2019-04-21T15:31:33.885Z,24.85
2019-04-21T15:32:28.752Z,24.90
2019-04-21T15:34:23.959Z,24.97
2019-04-21T15:35:21.447Z,24.92
2019-04-21T15:37:14.050Z,24.66
2019-04-21T15:38:14.038Z,24.64
2019-04-21T15:40:18.132Z,24.59
2019-04-21T15:41:10.472Z,24.59
2019-04-21T15:43:00.149Z,24.56
2019-04-21T15:44:01.266Z,24.52
2019-04-21T15:45:52.894Z,24.49
2019-04-21T15:46:52.269Z,24.63
2019-04-21T15:48:44.756Z,24.67
2019-04-21T15:49:51.750Z,24.70
2019-04-21T15:51:38.027Z,24.71
2019-04-21T15:52:37.860Z,24.61
2019-04-21T15:54:29.556Z,24.78
2019-04-21T15:55:30.757Z,24.90
2019-04-21T15:57:22.158Z,25.02
2019-04-21T15:58:22.901Z,25.32
2019-04-21T16:00:14.722Z,25.67
2019-04-21T16:01:14.625Z,25.79
2019-04-21T16:03:08.650Z,25.85
2019-04-21T16:04:07.998Z,25.94
2019-04-21T16:06:01.300Z,26.16
2019-04-21T16:06:59.799Z,26.20
2019-04-21T16:08:54.251Z,25.85
2019-04-21T16:09:52.528Z,25.66
2019-04-21T16:11:46.123Z,25.29
2019-04-21T16:12:45.637Z,25.23
2019-04-21T16:14:38.642Z,25.00
2019-04-21T16:15:38.652Z,25.00
2019-04-21T16:17:30.427Z,24.82
2019-04-21T16:18:30.159Z,24.82
2019-04-21T16:20:24.062Z,24.78
2019-04-21T16:21:24.228Z,24.71
2019-04-21T16:23:15.956Z,24.64
2019-04-21T16:24:16.335Z,24.66
2019-04-21T16:26:08.798Z,24.67
2019-04-21T16:27:10.611Z,24.59
2019-04-21T16:29:01.143Z,24.36
2019-04-21T16:30:01.946Z,24.42
2019-04-21T16:31:53.711Z,24.36
2019-04-21T16:32:54.415Z,24.42
2019-04-21T16:34:53.596Z,24.39
2019-04-21T16:35:47.502Z,24.30
2019-04-21T16:37:39.518Z,24.17
2019-04-21T16:38:39.681Z,24.14
2019-04-21T16:40:43.271Z,24.14
2019-04-21T16:41:32.087Z,24.12
2019-04-21T16:43:24.995Z,24.09
2019-04-21T16:44:25.311Z,24.04
2019-04-21T16:46:17.893Z,24.11
2019-04-21T16:47:17.260Z,24.07
2019-04-21T16:49:09.666Z,24.02
2019-04-21T16:50:09.824Z,23.97
2019-04-21T16:52:02.335Z,24.03
2019-04-21T16:53:01.827Z,24.07
2019-04-21T16:54:55.800Z,24.03
2019-04-21T16:55:55.142Z,24.03
2019-04-21T16:57:59.443Z,24.04
2019-04-21T16:58:48.307Z,24.09
2019-04-21T17:00:46.024Z,23.99
2019-04-21T17:01:40.662Z,24.02
2019-04-21T17:03:32.720Z,23.94
2019-04-21T17:04:32.242Z,23.94
2019-04-21T17:06:25.030Z,23.81
2019-04-21T17:07:26.156Z,23.81
2019-04-21T17:09:18.753Z,23.79
2019-04-21T17:10:17.395Z,23.74
2019-04-21T17:12:14.085Z,23.71
2019-04-21T17:13:11.318Z,23.66
2019-04-21T17:15:21.427Z,23.87
2019-04-21T17:16:31.965Z,23.96
2019-04-21T17:18:15.067Z,24.42
2019-04-21T17:19:06.575Z,24.77
2019-04-21T17:20:53.803Z,25.17
2019-04-21T17:21:49.771Z,25.29
2019-04-21T17:23:41.080Z,25.07
2019-04-21T17:24:42.367Z,24.89
2019-04-21T17:26:36.206Z,24.45
2019-04-21T17:27:33.566Z,24.26
2019-04-21T17:29:26.233Z,23.97
2019-04-21T17:30:26.492Z,23.72
2019-04-21T17:32:20.326Z,23.56
2019-04-21T17:33:21.646Z,23.47
2019-04-21T17:35:12.142Z,23.47
2019-04-21T17:36:11.484Z,23.25
2019-04-21T17:38:04.044Z,23.09
2019-04-21T17:39:04.775Z,23.01
2019-04-21T17:41:09.430Z,22.96
2019-04-21T17:42:11.785Z,22.84
2019-04-21T17:43:49.941Z,22.79
2019-04-21T17:44:49.058Z,22.70
2019-04-21T17:46:48.585Z,22.70
2019-04-21T17:47:49.895Z,22.59
2019-04-21T17:49:34.857Z,22.63
2019-04-21T17:50:35.472Z,22.49
2019-04-21T17:52:36.602Z,22.46
2019-04-21T17:53:35.766Z,22.42
2019-04-21T17:55:26.197Z,22.24
2019-04-21T17:56:42.755Z,22.26
2019-04-21T17:58:27.982Z,22.15
2019-04-21T17:59:44.788Z,22.15
2019-04-21T18:01:26.525Z,21.97
2019-04-21T18:02:31.071Z,21.90
2019-04-21T18:04:18.805Z,21.86
2019-04-21T18:05:23.761Z,21.74
2019-04-21T18:07:02.364Z,21.68
2019-04-21T18:08:11.074Z,21.70
2019-04-21T18:10:12.144Z,21.56
2019-04-21T18:10:56.547Z,21.59
2019-04-21T18:12:45.757Z,21.48
2019-04-21T18:13:34.964Z,21.41
2019-04-21T18:15:42.785Z,21.36
2019-04-21T18:16:35.880Z,21.30
2019-04-21T18:18:20.990Z,21.27
2019-04-21T18:19:26.776Z,21.11
2019-04-21T18:21:14.518Z,21.09
2019-04-21T18:22:14.634Z,21.01
2019-04-21T18:24:14.653Z,20.96
2019-04-21T18:25:11.809Z,20.83
2019-04-21T18:27:02.494Z,20.74
2019-04-21T18:27:58.925Z,20.68
2019-04-21T18:29:52.517Z,20.56
2019-04-21T18:30:52.317Z,20.60
2019-04-21T18:32:44.273Z,20.46
2019-04-21T18:33:45.754Z,20.44
2019-04-21T18:35:43.046Z,20.32
2019-04-21T18:36:39.548Z,20.44
2019-04-21T18:38:44.223Z,20.35
2019-04-21T18:39:45.330Z,20.25
2019-04-21T18:41:21.946Z,20.12
2019-04-21T18:42:37.494Z,20.18
2019-04-21T18:44:43.266Z,20.12
2019-04-21T18:45:55.413Z,20.02
2019-04-21T18:47:28.984Z,19.98
2019-04-21T18:48:18.974Z,19.86
2019-04-21T18:50:01.841Z,19.85
2019-04-21T18:51:06.333Z,19.80
2019-04-21T18:53:05.000Z,19.83
2019-04-21T18:54:14.947Z,19.72
2019-04-21T18:55:49.622Z,19.75
2019-04-21T18:56:59.132Z,19.68
2019-04-21T18:58:38.299Z,19.65
2019-04-21T18:59:40.268Z,19.65
2019-04-21T19:01:33.317Z,19.61
2019-04-21T19:02:38.462Z,19.55
2019-04-21T19:04:28.563Z,19.46
2019-04-21T19:05:26.333Z,19.40
2019-04-21T19:07:27.556Z,19.43
2019-04-21T19:08:31.344Z,19.37
2019-04-21T19:10:26.698Z,19.28
2019-04-21T19:11:31.263Z,19.30
2019-04-21T19:13:41.904Z,19.32
2019-04-21T19:16:31.342Z,19.09
2019-04-21T19:17:38.171Z,18.99
2019-04-21T19:19:31.526Z,19.05
2019-04-21T19:20:18.282Z,18.90
2019-04-21T19:22:00.674Z,18.89
2019-04-21T19:22:52.438Z,18.84
2019-04-21T19:24:54.920Z,18.86
2019-04-21T19:25:55.161Z,18.75
2019-04-21T19:27:45.168Z,18.76
2019-04-21T19:28:50.216Z,18.69
2019-04-21T19:31:38.266Z,18.60
2019-04-21T19:33:27.425Z,18.60
2019-04-21T19:34:19.760Z,18.45
2019-04-21T19:36:03.470Z,18.39
2019-04-21T19:37:10.829Z,18.36
2019-04-21T19:39:06.277Z,18.42
2019-04-21T19:40:09.556Z,18.32
2019-04-21T19:42:00.405Z,18.27
2019-04-21T19:43:00.384Z,18.23
2019-04-21T19:44:56.796Z,18.21
2019-04-21T19:45:54.126Z,18.19
2019-04-21T19:47:52.770Z,18.08
2019-04-21T19:48:55.287Z,18.13
2019-04-21T19:50:47.067Z,18.03
2019-04-21T19:51:37.903Z,18.11
2019-04-21T19:53:32.993Z,17.98
2019-04-21T19:54:25.086Z,17.98
2019-04-21T19:56:12.038Z,17.95
2019-04-21T19:57:11.248Z,17.98
2019-04-21T19:59:03.675Z,18.01
2019-04-21T20:00:06.045Z,17.99
2019-04-21T20:01:58.234Z,18.02
2019-04-21T20:02:56.718Z,17.90
2019-04-21T20:04:57.654Z,17.81
2019-04-21T20:05:58.137Z,17.90
2019-04-21T20:08:01.650Z,17.84
2019-04-21T20:08:58.194Z,17.83
2019-04-21T20:10:55.034Z,17.71
2019-04-21T20:11:52.546Z,17.74
2019-04-21T20:14:30.768Z,17.66
2019-04-21T20:16:41.302Z,17.55
2019-04-21T20:17:40.807Z,17.49
2019-04-21T20:19:13.882Z,17.50
2019-04-21T20:20:13.271Z,17.52
2019-04-21T20:22:05.327Z,17.54
2019-04-21T20:23:08.881Z,17.47
2019-04-21T20:25:04.550Z,17.47
2019-04-21T20:26:02.307Z,17.45
2019-04-21T20:28:00.804Z,17.43
2019-04-21T20:29:02.447Z,17.36
2019-04-21T20:31:03.746Z,17.40
2019-04-21T20:31:54.189Z,17.35
2019-04-21T20:34:56.191Z,17.31
2019-04-21T20:36:48.911Z,17.22
2019-04-21T20:37:41.889Z,17.31
2019-04-21T20:39:26.573Z,17.35
2019-04-21T20:40:30.834Z,17.24
2019-04-21T20:42:25.337Z,17.21
2019-04-21T20:43:32.120Z,17.22
2019-04-21T20:46:26.910Z,17.17
2019-04-21T20:48:09.402Z,17.10
2019-04-21T20:49:06.970Z,16.94
2019-04-21T20:51:14.568Z,16.99
2019-04-21T20:52:09.828Z,16.88
2019-04-21T20:53:53.680Z,16.87
2019-04-21T20:54:59.023Z,16.73
2019-04-21T20:56:58.402Z,16.84
2019-04-21T20:57:48.978Z,16.87
2019-04-21T20:59:42.939Z,16.87
2019-04-21T21:00:56.147Z,16.90
2019-04-21T21:02:46.910Z,16.73
2019-04-21T21:03:42.249Z,16.80
2019-04-21T21:05:27.329Z,16.76
2019-04-21T21:06:26.234Z,16.70
2019-04-21T21:08:30.910Z,16.76
2019-04-21T21:09:18.210Z,16.76
2019-04-21T21:11:20.889Z,16.73
2019-04-21T21:12:34.277Z,16.73
2019-04-21T21:15:00.101Z,16.72
2019-04-21T21:17:03.663Z,16.74
2019-04-21T21:18:06.284Z,16.67
2019-04-21T21:20:02.686Z,16.69
2019-04-21T21:20:55.317Z,16.63
2019-04-21T21:22:42.383Z,16.65
2019-04-21T21:23:47.753Z,16.51
2019-04-21T21:25:49.705Z,16.62
2019-04-21T21:26:36.743Z,16.63
2019-04-21T21:28:26.718Z,16.63
2019-04-21T21:29:45.775Z,16.66
2019-04-21T21:31:25.285Z,16.62
2019-04-21T21:32:27.320Z,16.66
2019-04-21T21:34:25.782Z,16.55
2019-04-21T21:35:13.464Z,16.51
2019-04-21T21:37:21.216Z,16.51
2019-04-21T21:38:13.225Z,16.36
2019-04-21T21:40:04.350Z,16.40
2019-04-21T21:40:53.056Z,16.44
2019-04-21T21:42:43.439Z,16.30
2019-04-21T21:43:39.344Z,16.29
2019-04-21T21:45:39.392Z,16.34
2019-04-21T21:46:45.612Z,16.29
2019-04-21T21:48:38.259Z,16.29
2019-04-21T21:49:36.889Z,16.25
2019-04-21T21:51:26.944Z,16.32
2019-04-21T21:52:25.906Z,16.25
2019-04-21T21:54:09.628Z,16.22
2019-04-21T21:55:09.717Z,16.30
2019-04-21T21:57:01.044Z,16.17
2019-04-21T21:58:03.470Z,16.10
2019-04-21T21:59:58.923Z,16.11
